sensor_id;sensor_type;location;lat;lon;timestamp;temperature;humidity
20929;DHT22;21895;47.072;15.132;2023-04-19T00:01:09;10.40;99.90
20929;DHT22;21895;47.072;15.132;2023-04-19T00:03:39;10.50;99.90
20929;DHT22;21895;47.072;15.132;2023-04-19T00:06:06;10.40;99.90
20929;DHT22;21895;47.072;15.132;2023-04-19T00:08:33;10.40;99.90
20929;DHT22;21895;47.072;15.132;2023-04-19T00:10:59;10.40;99.90
20929;DHT22;21895;47.072;15.132;2023-04-19T00:13:26;10.40;99.90
20929;DHT22;21895;47.072;15.132;2023-04-19T00:15:52;10.60;99.90
20929;DHT22;21895;47.072;15.132;2023-04-19T00:18:19;10.40;99.90
20929;DHT22;21895;47.072;15.132;2023-04-19T00:20:46;10.30;99.90
20929;DHT22;21895;47.072;15.132;2023-04-19T00:23:13;10.20;99.90
20929;DHT22;21895;47.072;15.132;2023-04-19T00:25:40;10.20;99.90
20929;DHT22;21895;47.072;15.132;2023-04-19T00:28:06;10.30;99.90
20929;DHT22;21895;47.072;15.132;2023-04-19T00:30:33;10.20;99.90
20929;DHT22;21895;47.072;15.132;2023-04-19T00:33:00;10.30;99.90
20929;DHT22;21895;47.072;15.132;2023-04-19T00:35:26;10.20;99.90
20929;DHT22;21895;47.072;15.132;2023-04-19T00:37:53;10.20;99.90
20929;DHT22;21895;47.072;15.132;2023-04-19T00:40:19;10.30;99.90
20929;DHT22;21895;47.072;15.132;2023-04-19T00:42:46;10.20;99.90
20929;DHT22;21895;47.072;15.132;2023-04-19T00:45:13;10.20;99.90
20929;DHT22;21895;47.072;15.132;2023-04-19T00:47:39;10.30;99.90
20929;DHT22;21895;47.072;15.132;2023-04-19T00:50:07;10.50;99.90
20929;DHT22;21895;47.072;15.132;2023-04-19T00:52:34;10.40;99.90
20929;DHT22;21895;47.072;15.132;2023-04-19T00:55:01;10.30;99.90
20929;DHT22;21895;47.072;15.132;2023-04-19T00:57:29;10.20;99.90
20929;DHT22;21895;47.072;15.132;2023-04-19T00:59:56;10.20;99.90
20929;DHT22;21895;47.072;15.132;2023-04-19T01:02:23;10.10;99.90
20929;DHT22;21895;47.072;15.132;2023-04-19T01:04:50;10.10;99.90
20929;DHT22;21895;47.072;15.132;2023-04-19T01:07:18;10.10;99.90
20929;DHT22;21895;47.072;15.132;2023-04-19T01:09:45;10.10;99.90
20929;DHT22;21895;47.072;15.132;2023-04-19T01:12:12;10.20;99.90
20929;DHT22;21895;47.072;15.132;2023-04-19T01:14:39;10.10;99.90
20929;DHT22;21895;47.072;15.132;2023-04-19T01:17:06;10.10;99.90
20929;DHT22;21895;47.072;15.132;2023-04-19T01:19:34;10.00;99.90
20929;DHT22;21895;47.072;15.132;2023-04-19T01:22:01;9.90;99.90
20929;DHT22;21895;47.072;15.132;2023-04-19T01:24:29;9.80;99.90
20929;DHT22;21895;47.072;15.132;2023-04-19T01:26:56;10.00;99.90
20929;DHT22;21895;47.072;15.132;2023-04-19T01:29:23;9.90;99.90
20929;DHT22;21895;47.072;15.132;2023-04-19T01:31:49;9.80;99.90
20929;DHT22;21895;47.072;15.132;2023-04-19T01:34:21;9.80;99.90
20929;DHT22;21895;47.072;15.132;2023-04-19T01:36:50;9.70;99.90
20929;DHT22;21895;47.072;15.132;2023-04-19T01:39:17;9.70;99.90
20929;DHT22;21895;47.072;15.132;2023-04-19T01:41:43;9.60;99.90
20929;DHT22;21895;47.072;15.132;2023-04-19T01:44:10;9.60;99.90
20929;DHT22;21895;47.072;15.132;2023-04-19T01:46:36;9.50;99.90
20929;DHT22;21895;47.072;15.132;2023-04-19T01:49:03;9.50;99.90
20929;DHT22;21895;47.072;15.132;2023-04-19T01:51:30;9.50;99.90
20929;DHT22;21895;47.072;15.132;2023-04-19T01:53:56;9.50;99.90
20929;DHT22;21895;47.072;15.132;2023-04-19T01:56:23;9.40;99.90
20929;DHT22;21895;47.072;15.132;2023-04-19T01:58:50;9.50;99.90
20929;DHT22;21895;47.072;15.132;2023-04-19T02:01:16;9.50;99.90
20929;DHT22;21895;47.072;15.132;2023-04-19T02:03:43;9.50;99.90
20929;DHT22;21895;47.072;15.132;2023-04-19T02:06:11;9.40;99.90
20929;DHT22;21895;47.072;15.132;2023-04-19T02:08:39;9.30;99.90
20929;DHT22;21895;47.072;15.132;2023-04-19T02:11:10;9.30;99.90
20929;DHT22;21895;47.072;15.132;2023-04-19T02:13:41;9.40;99.90
20929;DHT22;21895;47.072;15.132;2023-04-19T02:16:09;9.40;99.90
20929;DHT22;21895;47.072;15.132;2023-04-19T02:18:36;9.40;99.90
20929;DHT22;21895;47.072;15.132;2023-04-19T02:21:04;9.40;99.90
20929;DHT22;21895;47.072;15.132;2023-04-19T02:23:31;9.50;99.90
20929;DHT22;21895;47.072;15.132;2023-04-19T02:25:58;9.50;99.90
20929;DHT22;21895;47.072;15.132;2023-04-19T02:28:26;9.50;99.90
20929;DHT22;21895;47.072;15.132;2023-04-19T02:30:52;9.50;99.90
20929;DHT22;21895;47.072;15.132;2023-04-19T02:33:20;9.50;99.90
20929;DHT22;21895;47.072;15.132;2023-04-19T02:35:48;9.50;99.90
20929;DHT22;21895;47.072;15.132;2023-04-19T02:38:14;9.30;99.90
20929;DHT22;21895;47.072;15.132;2023-04-19T02:40:41;9.30;99.90
20929;DHT22;21895;47.072;15.132;2023-04-19T02:43:07;9.30;99.90
20929;DHT22;21895;47.072;15.132;2023-04-19T02:45:34;9.30;99.90
20929;DHT22;21895;47.072;15.132;2023-04-19T02:48:02;9.30;99.90
20929;DHT22;21895;47.072;15.132;2023-04-19T02:50:28;9.30;99.90
20929;DHT22;21895;47.072;15.132;2023-04-19T02:52:57;9.30;99.90
20929;DHT22;21895;47.072;15.132;2023-04-19T02:55:23;9.30;99.90
20929;DHT22;21895;47.072;15.132;2023-04-19T02:57:50;9.20;99.90
20929;DHT22;21895;47.072;15.132;2023-04-19T03:00:17;9.10;99.90
20929;DHT22;21895;47.072;15.132;2023-04-19T03:02:44;9.00;99.90
20929;DHT22;21895;47.072;15.132;2023-04-19T03:05:10;9.10;99.90
20929;DHT22;21895;47.072;15.132;2023-04-19T03:07:37;9.00;99.90
20929;DHT22;21895;47.072;15.132;2023-04-19T03:10:04;8.80;99.90
20929;DHT22;21895;47.072;15.132;2023-04-19T03:12:31;8.80;99.90
20929;DHT22;21895;47.072;15.132;2023-04-19T03:14:58;8.60;99.90
20929;DHT22;21895;47.072;15.132;2023-04-19T03:17:24;8.50;99.90
20929;DHT22;21895;47.072;15.132;2023-04-19T03:19:51;8.50;99.90
20929;DHT22;21895;47.072;15.132;2023-04-19T03:22:17;8.40;99.90
20929;DHT22;21895;47.072;15.132;2023-04-19T03:24:46;8.40;99.90
20929;DHT22;21895;47.072;15.132;2023-04-19T03:27:12;8.30;99.90
20929;DHT22;21895;47.072;15.132;2023-04-19T03:29:39;8.10;99.90
20929;DHT22;21895;47.072;15.132;2023-04-19T03:32:06;8.00;99.90
20929;DHT22;21895;47.072;15.132;2023-04-19T03:34:32;7.90;99.90
20929;DHT22;21895;47.072;15.132;2023-04-19T03:36:59;7.80;99.90
20929;DHT22;21895;47.072;15.132;2023-04-19T03:39:25;7.80;99.90
20929;DHT22;21895;47.072;15.132;2023-04-19T03:41:53;7.70;99.90
20929;DHT22;21895;47.072;15.132;2023-04-19T03:44:19;7.70;99.90
20929;DHT22;21895;47.072;15.132;2023-04-19T03:46:46;7.60;99.90
20929;DHT22;21895;47.072;15.132;2023-04-19T03:49:13;7.50;99.90
20929;DHT22;21895;47.072;15.132;2023-04-19T03:51:40;7.60;99.90
20929;DHT22;21895;47.072;15.132;2023-04-19T03:54:06;7.80;99.90
20929;DHT22;21895;47.072;15.132;2023-04-19T03:56:33;8.00;99.90
20929;DHT22;21895;47.072;15.132;2023-04-19T03:58:59;7.90;99.90
20929;DHT22;21895;47.072;15.132;2023-04-19T04:01:26;7.70;99.90
20929;DHT22;21895;47.072;15.132;2023-04-19T04:03:53;7.50;99.90
20929;DHT22;21895;47.072;15.132;2023-04-19T04:06:23;7.50;99.90
20929;DHT22;21895;47.072;15.132;2023-04-19T04:08:49;7.40;99.90
20929;DHT22;21895;47.072;15.132;2023-04-19T04:11:15;7.50;99.90
20929;DHT22;21895;47.072;15.132;2023-04-19T04:13:42;7.60;99.90
20929;DHT22;21895;47.072;15.132;2023-04-19T04:16:11;7.50;99.90
20929;DHT22;21895;47.072;15.132;2023-04-19T04:18:37;7.30;99.90
20929;DHT22;21895;47.072;15.132;2023-04-19T04:21:04;7.20;99.90
20929;DHT22;21895;47.072;15.132;2023-04-19T04:23:31;7.20;99.90
20929;DHT22;21895;47.072;15.132;2023-04-19T04:25:59;7.20;99.90
20929;DHT22;21895;47.072;15.132;2023-04-19T04:28:26;7.10;99.90
20929;DHT22;21895;47.072;15.132;2023-04-19T04:30:54;7.00;99.90
20929;DHT22;21895;47.072;15.132;2023-04-19T04:33:26;7.00;99.90
20929;DHT22;21895;47.072;15.132;2023-04-19T04:35:53;7.10;99.90
20929;DHT22;21895;47.072;15.132;2023-04-19T04:38:21;7.00;99.90
20929;DHT22;21895;47.072;15.132;2023-04-19T04:40:52;6.90;99.90
20929;DHT22;21895;47.072;15.132;2023-04-19T04:43:23;7.00;99.90
20929;DHT22;21895;47.072;15.132;2023-04-19T04:45:53;7.10;99.90
20929;DHT22;21895;47.072;15.132;2023-04-19T04:48:23;7.20;99.90
20929;DHT22;21895;47.072;15.132;2023-04-19T04:50:49;7.20;99.90
20929;DHT22;21895;47.072;15.132;2023-04-19T04:53:16;7.40;99.90
20929;DHT22;21895;47.072;15.132;2023-04-19T04:55:43;7.60;99.90
20929;DHT22;21895;47.072;15.132;2023-04-19T04:58:09;7.80;99.90
20929;DHT22;21895;47.072;15.132;2023-04-19T05:00:36;8.00;99.90
20929;DHT22;21895;47.072;15.132;2023-04-19T05:03:03;8.10;99.90
20929;DHT22;21895;47.072;15.132;2023-04-19T05:05:29;8.30;99.90
20929;DHT22;21895;47.072;15.132;2023-04-19T05:07:56;8.50;99.90
20929;DHT22;21895;47.072;15.132;2023-04-19T05:10:22;8.50;99.90
20929;DHT22;21895;47.072;15.132;2023-04-19T05:12:49;8.60;99.90
20929;DHT22;21895;47.072;15.132;2023-04-19T05:15:15;8.60;99.90
20929;DHT22;21895;47.072;15.132;2023-04-19T05:17:42;8.60;99.90
20929;DHT22;21895;47.072;15.132;2023-04-19T05:20:09;8.80;99.90
20929;DHT22;21895;47.072;15.132;2023-04-19T05:22:36;9.00;99.90
20929;DHT22;21895;47.072;15.132;2023-04-19T05:25:03;9.10;99.90
20929;DHT22;21895;47.072;15.132;2023-04-19T05:27:30;9.20;99.90
20929;DHT22;21895;47.072;15.132;2023-04-19T05:29:56;9.30;99.90
20929;DHT22;21895;47.072;15.132;2023-04-19T05:32:23;9.50;99.90
20929;DHT22;21895;47.072;15.132;2023-04-19T05:34:49;9.70;99.90
20929;DHT22;21895;47.072;15.132;2023-04-19T05:37:16;9.80;99.90
20929;DHT22;21895;47.072;15.132;2023-04-19T05:39:42;9.90;99.90
20929;DHT22;21895;47.072;15.132;2023-04-19T05:42:10;10.00;99.90
20929;DHT22;21895;47.072;15.132;2023-04-19T05:44:37;10.20;99.90
20929;DHT22;21895;47.072;15.132;2023-04-19T05:47:04;10.30;99.90
20929;DHT22;21895;47.072;15.132;2023-04-19T05:49:30;10.40;99.90
20929;DHT22;21895;47.072;15.132;2023-04-19T05:51:57;10.50;99.90
20929;DHT22;21895;47.072;15.132;2023-04-19T05:54:23;10.40;99.90
20929;DHT22;21895;47.072;15.132;2023-04-19T05:56:50;10.50;99.90
20929;DHT22;21895;47.072;15.132;2023-04-19T05:59:17;10.60;99.90
20929;DHT22;21895;47.072;15.132;2023-04-19T06:01:43;10.80;99.90
20929;DHT22;21895;47.072;15.132;2023-04-19T06:04:10;10.80;99.90
20929;DHT22;21895;47.072;15.132;2023-04-19T06:06:37;10.80;99.90
20929;DHT22;21895;47.072;15.132;2023-04-19T06:09:03;10.90;99.90
20929;DHT22;21895;47.072;15.132;2023-04-19T06:11:32;11.00;99.90
20929;DHT22;21895;47.072;15.132;2023-04-19T06:14:12;11.20;99.90
20929;DHT22;21895;47.072;15.132;2023-04-19T06:16:40;11.40;99.90
20929;DHT22;21895;47.072;15.132;2023-04-19T06:19:07;11.50;99.90
20929;DHT22;21895;47.072;15.132;2023-04-19T06:21:34;11.70;99.90
20929;DHT22;21895;47.072;15.132;2023-04-19T06:24:00;11.80;99.90
20929;DHT22;21895;47.072;15.132;2023-04-19T06:26:27;11.90;99.90
20929;DHT22;21895;47.072;15.132;2023-04-19T06:28:53;12.00;99.90
20929;DHT22;21895;47.072;15.132;2023-04-19T06:31:20;12.10;99.90
20929;DHT22;21895;47.072;15.132;2023-04-19T06:33:47;12.10;99.90
20929;DHT22;21895;47.072;15.132;2023-04-19T06:36:13;12.20;99.90
20929;DHT22;21895;47.072;15.132;2023-04-19T06:38:40;12.20;99.90
20929;DHT22;21895;47.072;15.132;2023-04-19T06:41:06;12.40;99.90
20929;DHT22;21895;47.072;15.132;2023-04-19T06:43:34;12.70;99.90
20929;DHT22;21895;47.072;15.132;2023-04-19T06:46:01;13.00;99.90
20929;DHT22;21895;47.072;15.132;2023-04-19T06:48:29;13.20;99.90
20929;DHT22;21895;47.072;15.132;2023-04-19T06:50:56;13.50;99.90
20929;DHT22;21895;47.072;15.132;2023-04-19T06:53:22;13.70;99.90
20929;DHT22;21895;47.072;15.132;2023-04-19T06:56:02;13.70;99.90
20929;DHT22;21895;47.072;15.132;2023-04-19T06:58:31;13.80;99.90
20929;DHT22;21895;47.072;15.132;2023-04-19T07:01:01;14.00;99.90
20929;DHT22;21895;47.072;15.132;2023-04-19T07:03:29;14.20;99.40
20929;DHT22;21895;47.072;15.132;2023-04-19T07:05:55;14.40;98.60
20929;DHT22;21895;47.072;15.132;2023-04-19T07:08:23;14.80;98.70
20929;DHT22;21895;47.072;15.132;2023-04-19T07:10:57;15.00;98.30
20929;DHT22;21895;47.072;15.132;2023-04-19T07:13:24;15.20;96.60
20929;DHT22;21895;47.072;15.132;2023-04-19T07:15:51;15.30;95.60
20929;DHT22;21895;47.072;15.132;2023-04-19T07:18:17;15.20;96.50
20929;DHT22;21895;47.072;15.132;2023-04-19T07:20:44;15.10;97.60
20929;DHT22;21895;47.072;15.132;2023-04-19T07:23:14;15.20;97.70
20929;DHT22;21895;47.072;15.132;2023-04-19T07:25:40;15.30;97.30
20929;DHT22;21895;47.072;15.132;2023-04-19T07:28:07;15.40;96.10
20929;DHT22;21895;47.072;15.132;2023-04-19T07:30:35;15.60;95.60
20929;DHT22;21895;47.072;15.132;2023-04-19T07:33:01;15.80;95.00
20929;DHT22;21895;47.072;15.132;2023-04-19T07:35:29;15.80;94.60
20929;DHT22;21895;47.072;15.132;2023-04-19T07:37:56;16.10;94.60
20929;DHT22;21895;47.072;15.132;2023-04-19T07:40:23;16.20;93.70
20929;DHT22;21895;47.072;15.132;2023-04-19T07:42:49;16.20;94.60
20929;DHT22;21895;47.072;15.132;2023-04-19T07:45:16;16.30;94.00
20929;DHT22;21895;47.072;15.132;2023-04-19T07:47:42;16.30;93.10
20929;DHT22;21895;47.072;15.132;2023-04-19T07:50:10;16.40;93.60
20929;DHT22;21895;47.072;15.132;2023-04-19T07:52:37;16.40;94.30
20929;DHT22;21895;47.072;15.132;2023-04-19T07:55:05;16.50;94.40
20929;DHT22;21895;47.072;15.132;2023-04-19T07:57:34;16.70;92.30
20929;DHT22;21895;47.072;15.132;2023-04-19T08:00:00;16.90;91.80
20929;DHT22;21895;47.072;15.132;2023-04-19T08:02:27;17.20;92.00
20929;DHT22;21895;47.072;15.132;2023-04-19T08:04:54;17.10;90.90
20929;DHT22;21895;47.072;15.132;2023-04-19T08:07:21;17.20;91.10
20929;DHT22;21895;47.072;15.132;2023-04-19T08:09:48;17.30;91.90
20929;DHT22;21895;47.072;15.132;2023-04-19T08:12:15;17.20;92.60
20929;DHT22;21895;47.072;15.132;2023-04-19T08:15:00;17.30;91.70
20929;DHT22;21895;47.072;15.132;2023-04-19T08:17:54;17.60;89.90
20929;DHT22;21895;47.072;15.132;2023-04-19T08:20:21;17.70;90.60
20929;DHT22;21895;47.072;15.132;2023-04-19T08:22:48;17.80;89.10
20929;DHT22;21895;47.072;15.132;2023-04-19T08:25:14;17.80;90.40
20929;DHT22;21895;47.072;15.132;2023-04-19T08:27:41;18.10;90.00
20929;DHT22;21895;47.072;15.132;2023-04-19T08:30:08;18.00;90.90
20929;DHT22;21895;47.072;15.132;2023-04-19T08:32:36;18.20;89.70
20929;DHT22;21895;47.072;15.132;2023-04-19T08:35:03;18.30;87.90
20929;DHT22;21895;47.072;15.132;2023-04-19T08:37:30;18.50;86.90
20929;DHT22;21895;47.072;15.132;2023-04-19T08:39:56;18.30;85.50
20929;DHT22;21895;47.072;15.132;2023-04-19T08:42:23;18.30;86.70
20929;DHT22;21895;47.072;15.132;2023-04-19T08:45:02;18.50;85.10
20929;DHT22;21895;47.072;15.132;2023-04-19T08:47:36;18.70;86.90
20929;DHT22;21895;47.072;15.132;2023-04-19T08:50:22;19.00;87.50
20929;DHT22;21895;47.072;15.132;2023-04-19T08:53:01;19.10;85.20
20929;DHT22;21895;47.072;15.132;2023-04-19T08:55:49;19.30;86.00
20929;DHT22;21895;47.072;15.132;2023-04-19T08:58:19;19.50;87.40
20929;DHT22;21895;47.072;15.132;2023-04-19T09:01:06;19.70;82.80
20929;DHT22;21895;47.072;15.132;2023-04-19T09:03:45;19.30;81.60
20929;DHT22;21895;47.072;15.132;2023-04-19T09:06:28;18.80;80.50
20929;DHT22;21895;47.072;15.132;2023-04-19T09:09:21;18.20;80.90
20929;DHT22;21895;47.072;15.132;2023-04-19T09:11:51;17.80;82.20
20929;DHT22;21895;47.072;15.132;2023-04-19T09:14:19;17.80;84.00
20929;DHT22;21895;47.072;15.132;2023-04-19T09:16:47;17.90;82.90
20929;DHT22;21895;47.072;15.132;2023-04-19T09:19:17;18.00;81.00
20929;DHT22;21895;47.072;15.132;2023-04-19T09:21:50;18.00;82.80
20929;DHT22;21895;47.072;15.132;2023-04-19T09:24:18;18.00;83.40
20929;DHT22;21895;47.072;15.132;2023-04-19T09:26:54;18.10;82.90
20929;DHT22;21895;47.072;15.132;2023-04-19T09:29:22;18.00;80.70
20929;DHT22;21895;47.072;15.132;2023-04-19T09:31:56;18.20;80.60
20929;DHT22;21895;47.072;15.132;2023-04-19T09:34:24;18.30;80.80
20929;DHT22;21895;47.072;15.132;2023-04-19T09:36:50;18.40;81.30
20929;DHT22;21895;47.072;15.132;2023-04-19T09:39:32;18.40;79.00
20929;DHT22;21895;47.072;15.132;2023-04-19T09:42:01;18.40;78.60
20929;DHT22;21895;47.072;15.132;2023-04-19T09:44:27;18.40;81.30
20929;DHT22;21895;47.072;15.132;2023-04-19T09:46:57;18.50;80.80
20929;DHT22;21895;47.072;15.132;2023-04-19T09:49:24;18.40;80.10
20929;DHT22;21895;47.072;15.132;2023-04-19T09:52:08;18.30;79.60
20929;DHT22;21895;47.072;15.132;2023-04-19T09:54:38;18.30;81.00
20929;DHT22;21895;47.072;15.132;2023-04-19T09:57:07;18.30;77.60
20929;DHT22;21895;47.072;15.132;2023-04-19T09:59:38;18.20;76.80
20929;DHT22;21895;47.072;15.132;2023-04-19T10:02:05;18.00;74.20
20929;DHT22;21895;47.072;15.132;2023-04-19T10:04:34;17.80;76.20
20929;DHT22;21895;47.072;15.132;2023-04-19T10:07:37;17.50;77.80
20929;DHT22;21895;47.072;15.132;2023-04-19T10:10:05;17.30;77.90
20929;DHT22;21895;47.072;15.132;2023-04-19T10:12:48;17.20;78.50
20929;DHT22;21895;47.072;15.132;2023-04-19T10:15:45;17.10;80.20
20929;DHT22;21895;47.072;15.132;2023-04-19T10:18:19;17.00;79.20
20929;DHT22;21895;47.072;15.132;2023-04-19T10:21:00;17.00;76.50
20929;DHT22;21895;47.072;15.132;2023-04-19T10:23:32;16.80;78.10
20929;DHT22;21895;47.072;15.132;2023-04-19T10:25:59;16.70;77.60
20929;DHT22;21895;47.072;15.132;2023-04-19T10:28:28;16.60;77.90
20929;DHT22;21895;47.072;15.132;2023-04-19T10:31:02;16.60;79.70
20929;DHT22;21895;47.072;15.132;2023-04-19T10:33:34;16.50;78.90
20929;DHT22;21895;47.072;15.132;2023-04-19T10:36:02;16.40;78.50
20929;DHT22;21895;47.072;15.132;2023-04-19T10:39:06;16.40;80.80
20929;DHT22;21895;47.072;15.132;2023-04-19T10:42:04;16.40;82.00
20929;DHT22;21895;47.072;15.132;2023-04-19T10:44:31;16.40;84.50
20929;DHT22;21895;47.072;15.132;2023-04-19T10:46:58;16.50;86.00
20929;DHT22;21895;47.072;15.132;2023-04-19T10:49:27;16.70;86.20
20929;DHT22;21895;47.072;15.132;2023-04-19T10:51:53;16.80;86.20
20929;DHT22;21895;47.072;15.132;2023-04-19T10:54:29;17.00;85.20
20929;DHT22;21895;47.072;15.132;2023-04-19T10:57:00;17.20;84.70
20929;DHT22;21895;47.072;15.132;2023-04-19T10:59:30;17.40;84.30
20929;DHT22;21895;47.072;15.132;2023-04-19T11:02:26;17.50;83.90
20929;DHT22;21895;47.072;15.132;2023-04-19T11:05:02;17.50;84.40
20929;DHT22;21895;47.072;15.132;2023-04-19T11:07:36;17.50;81.60
20929;DHT22;21895;47.072;15.132;2023-04-19T11:10:03;17.70;82.90
20929;DHT22;21895;47.072;15.132;2023-04-19T11:12:30;17.90;82.60
20929;DHT22;21895;47.072;15.132;2023-04-19T11:14:57;17.90;82.60
20929;DHT22;21895;47.072;15.132;2023-04-19T11:17:29;18.10;82.90
20929;DHT22;21895;47.072;15.132;2023-04-19T11:20:02;18.00;81.10
20929;DHT22;21895;47.072;15.132;2023-04-19T11:22:39;18.00;81.30
20929;DHT22;21895;47.072;15.132;2023-04-19T11:25:12;18.00;82.50
20929;DHT22;21895;47.072;15.132;2023-04-19T11:27:51;18.10;82.50
20929;DHT22;21895;47.072;15.132;2023-04-19T11:30:28;18.20;80.30
20929;DHT22;21895;47.072;15.132;2023-04-19T11:32:56;18.30;80.90
20929;DHT22;21895;47.072;15.132;2023-04-19T11:35:24;18.30;83.70
20929;DHT22;21895;47.072;15.132;2023-04-19T11:37:53;18.50;81.30
20929;DHT22;21895;47.072;15.132;2023-04-19T11:40:22;18.70;80.70
20929;DHT22;21895;47.072;15.132;2023-04-19T11:43:01;18.50;80.20
20929;DHT22;21895;47.072;15.132;2023-04-19T11:45:34;18.30;81.60
20929;DHT22;21895;47.072;15.132;2023-04-19T11:48:07;17.90;82.50
20929;DHT22;21895;47.072;15.132;2023-04-19T11:50:43;17.50;83.40
20929;DHT22;21895;47.072;15.132;2023-04-19T11:53:21;17.30;82.90
20929;DHT22;21895;47.072;15.132;2023-04-19T11:55:54;17.00;85.20
20929;DHT22;21895;47.072;15.132;2023-04-19T11:58:26;16.80;85.90
20929;DHT22;21895;47.072;15.132;2023-04-19T12:01:06;16.80;85.40
20929;DHT22;21895;47.072;15.132;2023-04-19T12:03:45;16.60;85.10
20929;DHT22;21895;47.072;15.132;2023-04-19T12:06:22;16.40;87.00
20929;DHT22;21895;47.072;15.132;2023-04-19T12:08:53;16.30;88.10
20929;DHT22;21895;47.072;15.132;2023-04-19T12:11:23;16.30;86.00
20929;DHT22;21895;47.072;15.132;2023-04-19T12:14:07;16.20;86.70
20929;DHT22;21895;47.072;15.132;2023-04-19T12:16:34;16.10;88.60
20929;DHT22;21895;47.072;15.132;2023-04-19T12:19:14;16.20;90.40
20929;DHT22;21895;47.072;15.132;2023-04-19T12:21:44;16.10;90.40
20929;DHT22;21895;47.072;15.132;2023-04-19T12:24:14;15.90;91.10
20929;DHT22;21895;47.072;15.132;2023-04-19T12:26:55;15.90;91.10
20929;DHT22;21895;47.072;15.132;2023-04-19T12:29:22;16.00;91.20
20929;DHT22;21895;47.072;15.132;2023-04-19T12:31:49;16.10;91.10
20929;DHT22;21895;47.072;15.132;2023-04-19T12:34:15;16.40;91.40
20929;DHT22;21895;47.072;15.132;2023-04-19T12:36:42;16.60;91.50
20929;DHT22;21895;47.072;15.132;2023-04-19T12:39:08;16.80;91.70
20929;DHT22;21895;47.072;15.132;2023-04-19T12:41:35;17.00;91.40
20929;DHT22;21895;47.072;15.132;2023-04-19T12:44:02;16.90;91.40
20929;DHT22;21895;47.072;15.132;2023-04-19T12:46:28;17.00;91.70
20929;DHT22;21895;47.072;15.132;2023-04-19T12:48:55;17.00;90.90
20929;DHT22;21895;47.072;15.132;2023-04-19T12:51:21;16.90;90.90
20929;DHT22;21895;47.072;15.132;2023-04-19T12:53:48;16.60;90.90
20929;DHT22;21895;47.072;15.132;2023-04-19T12:56:16;16.40;92.30
20929;DHT22;21895;47.072;15.132;2023-04-19T12:58:42;16.40;92.80
20929;DHT22;21895;47.072;15.132;2023-04-19T13:01:09;16.50;92.60
20929;DHT22;21895;47.072;15.132;2023-04-19T13:03:36;16.60;93.30
20929;DHT22;21895;47.072;15.132;2023-04-19T13:06:03;16.60;92.80
20929;DHT22;21895;47.072;15.132;2023-04-19T13:08:30;16.70;92.60
20929;DHT22;21895;47.072;15.132;2023-04-19T13:11:11;16.60;91.50
20929;DHT22;21895;47.072;15.132;2023-04-19T13:13:38;16.40;93.00
20929;DHT22;21895;47.072;15.132;2023-04-19T13:16:04;16.40;92.70
20929;DHT22;21895;47.072;15.132;2023-04-19T13:18:32;16.40;93.10
20929;DHT22;21895;47.072;15.132;2023-04-19T13:20:59;16.30;92.40
20929;DHT22;21895;47.072;15.132;2023-04-19T13:23:25;16.30;92.40
20929;DHT22;21895;47.072;15.132;2023-04-19T13:25:52;16.20;93.00
20929;DHT22;21895;47.072;15.132;2023-04-19T13:28:18;16.20;93.20
20929;DHT22;21895;47.072;15.132;2023-04-19T13:30:45;16.40;92.60
20929;DHT22;21895;47.072;15.132;2023-04-19T13:33:11;16.40;91.80
20929;DHT22;21895;47.072;15.132;2023-04-19T13:35:38;16.40;91.60
20929;DHT22;21895;47.072;15.132;2023-04-19T13:38:04;16.40;92.10
20929;DHT22;21895;47.072;15.132;2023-04-19T13:40:31;16.60;92.50
20929;DHT22;21895;47.072;15.132;2023-04-19T13:42:57;16.70;92.60
20929;DHT22;21895;47.072;15.132;2023-04-19T13:45:24;16.90;92.30
20929;DHT22;21895;47.072;15.132;2023-04-19T13:47:50;16.80;91.80
20929;DHT22;21895;47.072;15.132;2023-04-19T13:50:17;16.70;91.40
20929;DHT22;21895;47.072;15.132;2023-04-19T13:52:43;16.50;91.60
20929;DHT22;21895;47.072;15.132;2023-04-19T13:55:10;16.20;91.70
20929;DHT22;21895;47.072;15.132;2023-04-19T13:57:36;16.20;92.20
20929;DHT22;21895;47.072;15.132;2023-04-19T14:00:04;16.20;92.60
20929;DHT22;21895;47.072;15.132;2023-04-19T14:02:31;16.20;92.40
20929;DHT22;21895;47.072;15.132;2023-04-19T14:04:58;16.00;92.70
20929;DHT22;21895;47.072;15.132;2023-04-19T14:07:25;16.00;92.60
20929;DHT22;21895;47.072;15.132;2023-04-19T14:09:51;15.90;92.60
20929;DHT22;21895;47.072;15.132;2023-04-19T14:12:18;15.80;92.30
20929;DHT22;21895;47.072;15.132;2023-04-19T14:14:44;15.80;92.70
20929;DHT22;21895;47.072;15.132;2023-04-19T14:17:11;15.80;92.70
20929;DHT22;21895;47.072;15.132;2023-04-19T14:19:37;15.70;92.50
20929;DHT22;21895;47.072;15.132;2023-04-19T14:22:04;15.80;92.50
20929;DHT22;21895;47.072;15.132;2023-04-19T14:24:31;15.80;92.70
20929;DHT22;21895;47.072;15.132;2023-04-19T14:26:57;16.00;93.20
20929;DHT22;21895;47.072;15.132;2023-04-19T14:29:37;16.00;92.60
20929;DHT22;21895;47.072;15.132;2023-04-19T14:32:04;16.00;92.20
20929;DHT22;21895;47.072;15.132;2023-04-19T14:34:50;16.10;92.10
20929;DHT22;21895;47.072;15.132;2023-04-19T14:37:17;16.10;92.00
20929;DHT22;21895;47.072;15.132;2023-04-19T14:39:44;16.10;92.20
20929;DHT22;21895;47.072;15.132;2023-04-19T14:42:11;16.20;92.00
20929;DHT22;21895;47.072;15.132;2023-04-19T14:44:38;16.20;91.90
20929;DHT22;21895;47.072;15.132;2023-04-19T14:47:06;16.20;91.90
20929;DHT22;21895;47.072;15.132;2023-04-19T14:49:32;16.40;91.40
20929;DHT22;21895;47.072;15.132;2023-04-19T14:51:59;16.40;92.30
20929;DHT22;21895;47.072;15.132;2023-04-19T14:54:26;16.50;92.10
20929;DHT22;21895;47.072;15.132;2023-04-19T14:56:52;16.30;92.10
20929;DHT22;21895;47.072;15.132;2023-04-19T14:59:19;16.40;91.50
20929;DHT22;21895;47.072;15.132;2023-04-19T15:01:45;16.30;91.30
20929;DHT22;21895;47.072;15.132;2023-04-19T15:04:12;16.20;91.30
20929;DHT22;21895;47.072;15.132;2023-04-19T15:06:39;16.10;92.20
20929;DHT22;21895;47.072;15.132;2023-04-19T15:09:06;16.00;92.50
20929;DHT22;21895;47.072;15.132;2023-04-19T15:11:32;15.90;92.10
20929;DHT22;21895;47.072;15.132;2023-04-19T15:13:59;15.80;93.00
20929;DHT22;21895;47.072;15.132;2023-04-19T15:16:25;15.70;93.30
20929;DHT22;21895;47.072;15.132;2023-04-19T15:18:52;15.60;93.00
20929;DHT22;21895;47.072;15.132;2023-04-19T15:21:19;15.30;93.50
20929;DHT22;21895;47.072;15.132;2023-04-19T15:23:50;15.20;93.90
20929;DHT22;21895;47.072;15.132;2023-04-19T15:26:16;15.10;94.20
20929;DHT22;21895;47.072;15.132;2023-04-19T15:28:43;15.00;94.30
20929;DHT22;21895;47.072;15.132;2023-04-19T15:31:09;15.00;93.10